sensor_id;sensor_type;location;lat;lon;timestamp;pressure;altitude;pressure_sealevel;temperature;humidity
5062;BME280;2351;50.812;12.872;2023-02-28T00:01:31;99103.19;;;-3.41;96.48
5062;BME280;2351;50.812;12.872;2023-02-28T00:04:04;99106.63;;;-3.39;96.24
5062;BME280;2351;50.812;12.872;2023-02-28T00:06:35;99109.19;;;-3.38;96.12
5062;BME280;2351;50.812;12.872;2023-02-28T00:09:09;99099.69;;;-3.39;96.28
5062;BME280;2351;50.812;12.872;2023-02-28T00:11:40;99100.53;;;-3.37;96.62
5062;BME280;2351;50.812;12.872;2023-02-28T00:14:12;99099.66;;;-3.36;96.76
5062;BME280;2351;50.812;12.872;2023-02-28T00:16:44;99097.09;;;-3.39;95.89
5062;BME280;2351;50.812;12.872;2023-02-28T00:19:16;99101.44;;;-3.39;96.59
5062;BME280;2351;50.812;12.872;2023-02-28T00:21:47;99099.69;;;-3.39;96.43
5062;BME280;2351;50.812;12.872;2023-02-28T00:24:20;99094.50;;;-3.39;96.84
5062;BME280;2351;50.812;12.872;2023-02-28T00:26:52;99099.66;;;-3.36;96.71
5062;BME280;2351;50.812;12.872;2023-02-28T00:29:24;99101.41;;;-3.36;96.89
5062;BME280;2351;50.812;12.872;2023-02-28T00:31:55;99097.97;;;-3.40;96.49
5062;BME280;2351;50.812;12.872;2023-02-28T00:34:27;99095.34;;;-3.37;96.89
5062;BME280;2351;50.812;12.872;2023-02-28T00:36:59;99086.72;;;-3.36;96.89
5062;BME280;2351;50.812;12.872;2023-02-28T00:39:33;99100.50;;;-3.34;97.15
5062;BME280;2351;50.812;12.872;2023-02-28T00:42:06;99097.94;;;-3.37;96.83
5062;BME280;2351;50.812;12.872;2023-02-28T00:44:38;99097.09;;;-3.39;97.11
5062;BME280;2351;50.812;12.872;2023-02-28T00:47:10;99099.69;;;-3.37;97.18
5062;BME280;2351;50.812;12.872;2023-02-28T00:49:41;99095.34;;;-3.37;97.46
5062;BME280;2351;50.812;12.872;2023-02-28T00:52:13;99086.75;;;-3.37;96.85
5062;BME280;2351;50.812;12.872;2023-02-28T00:54:46;99093.69;;;-3.41;97.63
5062;BME280;2351;50.812;12.872;2023-02-28T00:57:18;99090.22;;;-3.40;97.00
5062;BME280;2351;50.812;12.872;2023-02-28T00:59:50;99083.31;;;-3.41;97.56
5062;BME280;2351;50.812;12.872;2023-02-28T01:02:24;99087.66;;;-3.41;97.32
5062;BME280;2351;50.812;12.872;2023-02-28T01:04:56;99089.44;;;-3.45;97.58
5062;BME280;2351;50.812;12.872;2023-02-28T01:07:28;99088.59;;;-3.47;97.07
5062;BME280;2351;50.812;12.872;2023-02-28T01:10:01;99089.44;;;-3.46;97.54
5062;BME280;2351;50.812;12.872;2023-02-28T01:12:33;99078.25;;;-3.50;97.01
5062;BME280;2351;50.812;12.872;2023-02-28T01:15:05;99088.66;;;-3.53;96.99
5062;BME280;2351;50.812;12.872;2023-02-28T01:17:37;99086.09;;;-3.56;97.29
5062;BME280;2351;50.812;12.872;2023-02-28T01:20:10;99084.41;;;-3.60;97.35
5062;BME280;2351;50.812;12.872;2023-02-28T01:22:42;99081.84;;;-3.64;97.42
5062;BME280;2351;50.812;12.872;2023-02-28T01:25:15;99083.66;;;-3.72;96.96
5062;BME280;2351;50.812;12.872;2023-02-28T01:27:47;99077.66;;;-3.75;97.31
5062;BME280;2351;50.812;12.872;2023-02-28T01:30:19;99076.03;;;-3.86;97.79
5062;BME280;2351;50.812;12.872;2023-02-28T01:32:51;99075.22;;;-3.89;97.30
5062;BME280;2351;50.812;12.872;2023-02-28T01:35:23;99076.97;;;-3.95;97.41
5062;BME280;2351;50.812;12.872;2023-02-28T01:37:55;99085.66;;;-4.02;97.07
5062;BME280;2351;50.812;12.872;2023-02-28T01:40:28;99077.91;;;-4.03;97.13
5062;BME280;2351;50.812;12.872;2023-02-28T01:43:00;99077.06;;;-4.05;96.86
5062;BME280;2351;50.812;12.872;2023-02-28T01:45:34;99066.72;;;-4.07;96.89
5062;BME280;2351;50.812;12.872;2023-02-28T01:48:08;99063.34;;;-4.12;97.04
5062;BME280;2351;50.812;12.872;2023-02-28T01:50:43;99072.00;;;-4.16;97.01
5062;BME280;2351;50.812;12.872;2023-02-28T01:53:19;99074.59;;;-4.19;97.17
5062;BME280;2351;50.812;12.872;2023-02-28T01:55:54;99072.03;;;-4.21;96.98
5062;BME280;2351;50.812;12.872;2023-02-28T01:58:26;99069.47;;;-4.29;96.50
5062;BME280;2351;50.812;12.872;2023-02-28T02:00:58;99066.94;;;-4.32;96.52
5062;BME280;2351;50.812;12.872;2023-02-28T02:03:30;99071.28;;;-4.37;97.25
5062;BME280;2351;50.812;12.872;2023-02-28T02:06:03;99071.34;;;-4.42;96.51
5062;BME280;2351;50.812;12.872;2023-02-28T02:08:36;99062.75;;;-4.47;96.76
5062;BME280;2351;50.812;12.872;2023-02-28T02:11:11;99067.06;;;-4.50;96.78
5062;BME280;2351;50.812;12.872;2023-02-28T02:14:03;99058.50;;;-4.56;96.19
5062;BME280;2351;50.812;12.872;2023-02-28T02:16:51;99059.38;;;-4.58;96.38
5062;BME280;2351;50.812;12.872;2023-02-28T02:19:43;99066.31;;;-4.65;96.21
5062;BME280;2351;50.812;12.872;2023-02-28T02:22:34;99058.59;;;-4.71;96.22
5062;BME280;2351;50.812;12.872;2023-02-28T02:25:12;99060.38;;;-4.79;96.11
5062;BME280;2351;50.812;12.872;2023-02-28T02:28:13;99063.81;;;-4.85;95.93
5062;BME280;2351;50.812;12.872;2023-02-28T02:34:29;99063.88;;;-4.93;96.32
5062;BME280;2351;50.812;12.872;2023-02-28T02:37:11;99055.31;;;-4.98;96.08
5062;BME280;2351;50.812;12.872;2023-02-28T02:39:50;99055.34;;;-5.01;96.21
5062;BME280;2351;50.812;12.872;2023-02-28T02:42:28;99063.06;;;-5.01;96.53
5062;BME280;2351;50.812;12.872;2023-02-28T02:45:04;99058.78;;;-5.02;96.34
5062;BME280;2351;50.812;12.872;2023-02-28T02:47:39;99059.66;;;-5.03;96.54
5062;BME280;2351;50.812;12.872;2023-02-28T02:50:17;99063.06;;;-5.03;96.31
5062;BME280;2351;50.812;12.872;2023-02-28T02:52:54;99066.50;;;-4.99;96.49
5062;BME280;2351;50.812;12.872;2023-02-28T02:55:28;99065.66;;;-4.98;96.40
5062;BME280;2351;50.812;12.872;2023-02-28T02:58:04;99067.34;;;-4.95;96.33
5062;BME280;2351;50.812;12.872;2023-02-28T03:00:41;99066.47;;;-4.91;96.58
5062;BME280;2351;50.812;12.872;2023-02-28T03:03:13;99063.84;;;-4.87;96.70
5062;BME280;2351;50.812;12.872;2023-02-28T03:05:50;99079.34;;;-4.85;96.96
5062;BME280;2351;50.812;12.872;2023-02-28T03:08:23;99075.00;;;-4.80;96.76
5062;BME280;2351;50.812;12.872;2023-02-28T03:10:57;99068.97;;;-4.77;97.11
5062;BME280;2351;50.812;12.872;2023-02-28T03:13:51;99065.47;;;-4.73;96.88
5062;BME280;2351;50.812;12.872;2023-02-28T03:16:32;99069.78;;;-4.69;97.10
5062;BME280;2351;50.812;12.872;2023-02-28T03:19:24;99065.47;;;-4.65;97.30
5062;BME280;2351;50.812;12.872;2023-02-28T03:22:14;99065.41;;;-4.59;97.54
5062;BME280;2351;50.812;12.872;2023-02-28T03:24:50;99061.09;;;-4.59;97.47
5062;BME280;2351;50.812;12.872;2023-02-28T03:27:29;99064.50;;;-4.52;97.32
5062;BME280;2351;50.812;12.872;2023-02-28T03:30:06;99055.84;;;-4.48;97.33
5062;BME280;2351;50.812;12.872;2023-02-28T03:32:42;99060.13;;;-4.45;97.31
5062;BME280;2351;50.812;12.872;2023-02-28T03:35:22;99058.41;;;-4.46;98.06
5062;BME280;2351;50.812;12.872;2023-02-28T03:38:00;99051.50;;;-4.44;98.14
5062;BME280;2351;50.812;12.872;2023-02-28T03:40:36;99061.88;;;-4.43;98.27
5062;BME280;2351;50.812;12.872;2023-02-28T03:43:13;99050.63;;;-4.40;97.75
5062;BME280;2351;50.812;12.872;2023-02-28T03:45:48;99056.66;;;-4.38;98.28
5062;BME280;2351;50.812;12.872;2023-02-28T03:48:23;99054.03;;;-4.35;98.32
5062;BME280;2351;50.812;12.872;2023-02-28T03:50:59;99056.59;;;-4.32;98.21
5062;BME280;2351;50.812;12.872;2023-02-28T03:53:35;99056.56;;;-4.29;98.26
5062;BME280;2351;50.812;12.872;2023-02-28T03:56:13;99060.00;;;-4.27;98.05
5062;BME280;2351;50.812;12.872;2023-02-28T03:58:51;99059.97;;;-4.24;98.54
5062;BME280;2351;50.812;12.872;2023-02-28T04:01:28;99062.56;;;-4.22;98.26
5062;BME280;2351;50.812;12.872;2023-02-28T04:04:02;99063.38;;;-4.18;98.19
5062;BME280;2351;50.812;12.872;2023-02-28T04:06:35;99062.50;;;-4.17;98.15
5062;BME280;2351;50.812;12.872;2023-02-28T04:09:10;99075.44;;;-4.17;98.30
5062;BME280;2351;50.812;12.872;2023-02-28T04:11:44;99065.09;;;-4.17;98.46
5062;BME280;2351;50.812;12.872;2023-02-28T04:14:16;99064.25;;;-4.19;98.34
5062;BME280;2351;50.812;12.872;2023-02-28T04:16:47;99058.22;;;-4.18;98.50
5062;BME280;2351;50.812;12.872;2023-02-28T04:19:21;99059.06;;;-4.19;98.44
5062;BME280;2351;50.812;12.872;2023-02-28T04:21:53;99062.53;;;-4.20;98.42
5062;BME280;2351;50.812;12.872;2023-02-28T04:24:27;99059.91;;;-4.19;98.09
5062;BME280;2351;50.812;12.872;2023-02-28T04:26:59;99060.81;;;-4.20;98.21
5062;BME280;2351;50.812;12.872;2023-02-28T04:29:31;99067.69;;;-4.19;98.26
5062;BME280;2351;50.812;12.872;2023-02-28T04:32:03;99072.88;;;-4.20;98.17
5062;BME280;2351;50.812;12.872;2023-02-28T04:34:35;99077.19;;;-4.22;98.07
5062;BME280;2351;50.812;12.872;2023-02-28T04:37:07;99079.78;;;-4.22;98.12
5062;BME280;2351;50.812;12.872;2023-02-28T04:39:41;99074.66;;;-4.27;98.61
5062;BME280;2351;50.812;12.872;2023-02-28T04:42:13;99076.41;;;-4.31;98.13
5062;BME280;2351;50.812;12.872;2023-02-28T04:44:45;99087.63;;;-4.32;98.44
5062;BME280;2351;50.812;12.872;2023-02-28T04:47:17;99083.34;;;-4.38;98.11
5062;BME280;2351;50.812;12.872;2023-02-28T04:49:49;99082.50;;;-4.40;98.01
5062;BME280;2351;50.812;12.872;2023-02-28T04:52:20;99082.53;;;-4.44;98.48
5062;BME280;2351;50.812;12.872;2023-02-28T04:54:53;99083.44;;;-4.47;98.33
5062;BME280;2351;50.812;12.872;2023-02-28T04:57:25;99084.25;;;-4.46;98.66
5062;BME280;2351;50.812;12.872;2023-02-28T04:59:57;99086.88;;;-4.48;98.61
5062;BME280;2351;50.812;12.872;2023-02-28T05:02:28;99090.31;;;-4.49;98.72
5062;BME280;2351;50.812;12.872;2023-02-28T05:05:00;99094.66;;;-4.51;98.90
5062;BME280;2351;50.812;12.872;2023-02-28T05:07:32;99098.94;;;-4.50;98.55
5062;BME280;2351;50.812;12.872;2023-02-28T05:10:06;99099.78;;;-4.49;98.70
5062;BME280;2351;50.812;12.872;2023-02-28T05:12:37;99092.91;;;-4.50;98.96
5062;BME280;2351;50.812;12.872;2023-02-28T05:15:12;99092.91;;;-4.50;98.65
5062;BME280;2351;50.812;12.872;2023-02-28T05:17:44;99098.06;;;-4.50;98.46
5062;BME280;2351;50.812;12.872;2023-02-28T05:20:16;99099.84;;;-4.52;98.64
5062;BME280;2351;50.812;12.872;2023-02-28T05:22:49;99096.41;;;-4.58;99.04
5062;BME280;2351;50.812;12.872;2023-02-28T05:25:27;99111.06;;;-4.57;99.45
5062;BME280;2351;50.812;12.872;2023-02-28T05:27:59;99095.53;;;-4.54;99.51
5062;BME280;2351;50.812;12.872;2023-02-28T05:30:31;99096.41;;;-4.58;99.56
5062;BME280;2351;50.812;12.872;2023-02-28T05:33:03;99100.72;;;-4.57;99.37
5062;BME280;2351;50.812;12.872;2023-02-28T05:35:37;99109.28;;;-4.50;99.45
5062;BME280;2351;50.812;12.872;2023-02-28T05:38:09;99108.41;;;-4.49;99.03
5062;BME280;2351;50.812;12.872;2023-02-28T05:40:42;99103.28;;;-4.54;99.46
5062;BME280;2351;50.812;12.872;2023-02-28T05:43:14;99103.25;;;-4.50;99.35
5062;BME280;2351;50.812;12.872;2023-02-28T05:45:46;99105.88;;;-4.54;99.25
5062;BME280;2351;50.812;12.872;2023-02-28T05:48:17;99106.69;;;-4.50;99.55
5062;BME280;2351;50.812;12.872;2023-02-28T05:50:49;99108.41;;;-4.50;99.17
5062;BME280;2351;50.812;12.872;2023-02-28T05:53:21;99106.72;;;-4.53;99.47
5062;BME280;2351;50.812;12.872;2023-02-28T05:55:54;99114.47;;;-4.56;99.72
5062;BME280;2351;50.812;12.872;2023-02-28T05:58:26;99103.31;;;-4.57;99.19
5062;BME280;2351;50.812;12.872;2023-02-28T06:01:19;99118.81;;;-4.60;99.36
5062;BME280;2351;50.812;12.872;2023-02-28T06:03:51;99118.84;;;-4.63;99.62
5062;BME280;2351;50.812;12.872;2023-02-28T06:06:23;99117.97;;;-4.65;99.39
5062;BME280;2351;50.812;12.872;2023-02-28T06:08:55;99118.84;;;-4.66;99.40
5062;BME280;2351;50.812;12.872;2023-02-28T06:11:28;99124.91;;;-4.65;99.33
5062;BME280;2351;50.812;12.872;2023-02-28T06:14:00;99127.44;;;-4.61;99.51
5062;BME280;2351;50.812;12.872;2023-02-28T06:16:34;99130.00;;;-4.58;99.63
5062;BME280;2351;50.812;12.872;2023-02-28T06:19:05;99123.09;;;-4.54;99.69
5062;BME280;2351;50.812;12.872;2023-02-28T06:21:37;99127.38;;;-4.47;100.00
5062;BME280;2351;50.812;12.872;2023-02-28T06:24:10;99122.88;;;-4.20;100.00
5062;BME280;2351;50.812;12.872;2023-02-28T06:26:43;99130.84;;;-3.46;100.00
5062;BME280;2351;50.812;12.872;2023-02-28T06:29:15;99127.09;;;-2.49;100.00
5062;BME280;2351;50.812;12.872;2023-02-28T06:31:48;99132.28;;;-1.42;100.00
5062;BME280;2351;50.812;12.872;2023-02-28T06:34:20;99137.59;;;-0.59;100.00
5062;BME280;2351;50.812;12.872;2023-02-28T06:36:52;99126.72;;;0.01;100.00
5062;BME280;2351;50.812;12.872;2023-02-28T06:39:24;99129.84;;;0.50;100.00
5062;BME280;2351;50.812;12.872;2023-02-28T06:41:57;99136.50;;;0.93;100.00
5062;BME280;2351;50.812;12.872;2023-02-28T06:44:29;99141.53;;;1.31;100.00
5062;BME280;2351;50.812;12.872;2023-02-28T06:47:05;99139.00;;;1.86;100.00
5062;BME280;2351;50.812;12.872;2023-02-28T06:49:37;99143.66;;;2.57;100.00
5062;BME280;2351;50.812;12.872;2023-02-28T06:52:09;99145.69;;;3.47;100.00
5062;BME280;2351;50.812;12.872;2023-02-28T06:54:41;99145.56;;;4.18;100.00
5062;BME280;2351;50.812;12.872;2023-02-28T06:57:14;99146.25;;;4.86;100.00
5062;BME280;2351;50.812;12.872;2023-02-28T06:59:46;99140.28;;;5.03;100.00
5062;BME280;2351;50.812;12.872;2023-02-28T07:02:17;99145.50;;;5.62;98.59
5062;BME280;2351;50.812;12.872;2023-02-28T07:04:49;99139.41;;;5.98;96.58
5062;BME280;2351;50.812;12.872;2023-02-28T07:07:21;99141.97;;;6.71;98.88
5062;BME280;2351;50.812;12.872;2023-02-28T07:09:52;99139.22;;;7.08;88.15
5062;BME280;2351;50.812;12.872;2023-02-28T07:12:25;99143.13;;;7.66;88.44
5062;BME280;2351;50.812;12.872;2023-02-28T07:14:57;99149.81;;;7.40;86.03
5062;BME280;2351;50.812;12.872;2023-02-28T07:17:29;99144.13;;;7.96;88.52
5062;BME280;2351;50.812;12.872;2023-02-28T07:20:00;99145.91;;;8.58;88.44
5062;BME280;2351;50.812;12.872;2023-02-28T07:22:34;99146.69;;;9.19;79.99
5062;BME280;2351;50.812;12.872;2023-02-28T07:25:07;99150.34;;;9.31;76.55
5062;BME280;2351;50.812;12.872;2023-02-28T07:27:40;99146.94;;;9.44;76.02
5062;BME280;2351;50.812;12.872;2023-02-28T07:30:12;99137.97;;;9.46;69.79
5062;BME280;2351;50.812;12.872;2023-02-28T07:32:44;99144.19;;;8.87;72.52
5062;BME280;2351;50.812;12.872;2023-02-28T07:35:16;99144.59;;;8.35;62.33
5062;BME280;2351;50.812;12.872;2023-02-28T07:37:48;99147.84;;;7.28;67.37
5062;BME280;2351;50.812;12.872;2023-02-28T07:40:20;99151.50;;;6.56;72.50
5062;BME280;2351;50.812;12.872;2023-02-28T07:42:53;99152.94;;;6.27;72.89
5062;BME280;2351;50.812;12.872;2023-02-28T07:45:25;99145.97;;;5.32;56.86
5062;BME280;2351;50.812;12.872;2023-02-28T07:47:57;99159.25;;;4.89;61.88
5062;BME280;2351;50.812;12.872;2023-02-28T07:50:28;99158.78;;;5.19;66.46
5062;BME280;2351;50.812;12.872;2023-02-28T07:53:01;99155.66;;;5.10;65.56
5062;BME280;2351;50.812;12.872;2023-02-28T07:55:32;99156.84;;;5.03;63.81
5062;BME280;2351;50.812;12.872;2023-02-28T07:58:06;99158.56;;;5.04;48.10
5062;BME280;2351;50.812;12.872;2023-02-28T08:00:38;99156.50;;;4.28;49.94
5062;BME280;2351;50.812;12.872;2023-02-28T08:03:11;99153.66;;;4.12;57.23
5062;BME280;2351;50.812;12.872;2023-02-28T08:05:43;99152.84;;;4.32;57.00
5062;BME280;2351;50.812;12.872;2023-02-28T08:08:15;99162.94;;;3.05;52.83
5062;BME280;2351;50.812;12.872;2023-02-28T08:10:47;99167.09;;;3.11;55.14
5062;BME280;2351;50.812;12.872;2023-02-28T08:13:20;99166.63;;;3.23;52.24
5062;BME280;2351;50.812;12.872;2023-02-28T08:15:51;99169.16;;;1.38;58.20
5062;BME280;2351;50.812;12.872;2023-02-28T08:18:23;99184.63;;;1.13;57.42
5062;BME280;2351;50.812;12.872;2023-02-28T08:20:55;99172.47;;;1.73;61.17
5062;BME280;2351;50.812;12.872;2023-02-28T08:23:27;99167.59;;;2.18;57.40
5062;BME280;2351;50.812;12.872;2023-02-28T08:25:59;99167.47;;;1.05;55.29
5062;BME280;2351;50.812;12.872;2023-02-28T08:28:32;99179.13;;;1.24;54.55
5062;BME280;2351;50.812;12.872;2023-02-28T08:31:07;99175.13;;;2.00;59.11
5062;BME280;2351;50.812;12.872;2023-02-28T08:33:39;99175.38;;;2.46;57.85
5062;BME280;2351;50.812;12.872;2023-02-28T08:36:11;99171.88;;;1.33;54.68
5062;BME280;2351;50.812;12.872;2023-02-28T08:38:43;99169.75;;;1.48;59.02
5062;BME280;2351;50.812;12.872;2023-02-28T08:41:16;99180.34;;;1.72;54.96
5062;BME280;2351;50.812;12.872;2023-02-28T08:43:49;99187.81;;;0.93;56.21
5062;BME280;2351;50.812;12.872;2023-02-28T08:46:21;99188.34;;;1.35;56.57
5062;BME280;2351;50.812;12.872;2023-02-28T08:48:53;99182.81;;;1.76;56.65
5062;BME280;2351;50.812;12.872;2023-02-28T08:51:26;99199.38;;;0.11;57.99
5062;BME280;2351;50.812;12.872;2023-02-28T08:53:59;99208.91;;;-0.69;60.43
5062;BME280;2351;50.812;12.872;2023-02-28T08:56:31;99205.16;;;-1.00;62.23
5062;BME280;2351;50.812;12.872;2023-02-28T08:59:04;99198.78;;;-0.83;63.10
5062;BME280;2351;50.812;12.872;2023-02-28T09:01:36;99195.31;;;-0.41;62.88
5062;BME280;2351;50.812;12.872;2023-02-28T09:04:07;99205.69;;;-0.84;61.84
5062;BME280;2351;50.812;12.872;2023-02-28T09:06:41;99194.09;;;-0.66;63.90
5062;BME280;2351;50.812;12.872;2023-02-28T09:09:12;99193.81;;;-0.52;63.42
5062;BME280;2351;50.812;12.872;2023-02-28T09:11:44;99187.22;;;-0.27;62.95
5062;BME280;2351;50.812;12.872;2023-02-28T09:14:17;99189.91;;;-0.32;62.52
5062;BME280;2351;50.812;12.872;2023-02-28T09:16:50;99193.09;;;-0.58;63.86
5062;BME280;2351;50.812;12.872;2023-02-28T09:19:21;99187.34;;;0.42;64.84
5062;BME280;2351;50.812;12.872;2023-02-28T09:21:53;99180.19;;;1.48;59.79
5062;BME280;2351;50.812;12.872;2023-02-28T09:24:25;99176.50;;;2.12;62.91
5062;BME280;2351;50.812;12.872;2023-02-28T09:26:57;99181.13;;;2.83;55.86
5062;BME280;2351;50.812;12.872;2023-02-28T09:29:30;99182.31;;;2.47;54.08
5062;BME280;2351;50.812;12.872;2023-02-28T09:32:02;99178.41;;;2.86;55.88
5062;BME280;2351;50.812;12.872;2023-02-28T09:34:35;99178.69;;;3.27;51.42
5062;BME280;2351;50.812;12.872;2023-02-28T09:37:08;99188.63;;;3.89;54.25
5062;BME280;2351;50.812;12.872;2023-02-28T09:39:39;99186.97;;;3.86;50.19
5062;BME280;2351;50.812;12.872;2023-02-28T09:42:27;99176.22;;;4.16;54.72
5062;BME280;2351;50.812;12.872;2023-02-28T09:45:06;99178.28;;;4.08;50.51
5062;BME280;2351;50.812;12.872;2023-02-28T09:47:45;99170.44;;;4.08;50.69
5062;BME280;2351;50.812;12.872;2023-02-28T09:50:28;99163.13;;;3.94;45.78
5062;BME280;2351;50.812;12.872;2023-02-28T09:53:06;99178.59;;;3.54;49.90
5062;BME280;2351;50.812;12.872;2023-02-28T09:55:45;99171.50;;;2.58;48.51
5062;BME280;2351;50.812;12.872;2023-02-28T09:58:23;99183.44;;;1.25;51.51
5062;BME280;2351;50.812;12.872;2023-02-28T10:01:03;99200.88;;;0.56;53.53
5062;BME280;2351;50.812;12.872;2023-02-28T10:03:40;99189.09;;;0.05;56.83
5062;BME280;2351;50.812;12.872;2023-02-28T10:06:16;99183.03;;;0.05;59.91
5062;BME280;2351;50.812;12.872;2023-02-28T10:08:56;99186.59;;;0.37;58.13
5062;BME280;2351;50.812;12.872;2023-02-28T10:11:32;99183.16;;;0.71;57.99
5062;BME280;2351;50.812;12.872;2023-02-28T10:14:06;99179.84;;;0.64;56.59
5062;BME280;2351;50.812;12.872;2023-02-28T10:16:46;99191.28;;;0.58;56.55
5062;BME280;2351;50.812;12.872;2023-02-28T10:19:25;99188.59;;;0.62;58.00
5062;BME280;2351;50.812;12.872;2023-02-28T10:22:05;99187.28;;;0.80;57.92
5062;BME280;2351;50.812;12.872;2023-02-28T10:24:40;99183.03;;;0.75;56.99
5062;BME280;2351;50.812;12.872;2023-02-28T10:27:15;99181.84;;;0.54;58.47
5062;BME280;2351;50.812;12.872;2023-02-28T10:29:49;99181.03;;;0.16;56.83
5062;BME280;2351;50.812;12.872;2023-02-28T10:32:25;99180.88;;;0.22;58.90
5062;BME280;2351;50.812;12.872;2023-02-28T10:35:00;99170.00;;;0.41;58.62
5062;BME280;2351;50.812;12.872;2023-02-28T10:37:32;99171.03;;;0.70;60.31
5062;BME280;2351;50.812;12.872;2023-02-28T10:40:26;99182.72;;;0.17;58.94
5062;BME280;2351;50.812;12.872;2023-02-28T10:43:01;99173.13;;;0.21;59.02
5062;BME280;2351;50.812;12.872;2023-02-28T10:45:34;99163.59;;;0.54;61.13
5062;BME280;2351;50.812;12.872;2023-02-28T10:48:30;99171.03;;;0.68;59.01
5062;BME280;2351;50.812;12.872;2023-02-28T10:51:05;99165.03;;;0.66;59.38
5062;BME280;2351;50.812;12.872;2023-02-28T10:53:45;99172.28;;;0.88;60.99
5062;BME280;2351;50.812;12.872;2023-02-28T10:56:20;99168.16;;;0.79;58.09
5062;BME280;2351;50.812;12.872;2023-02-28T10:58:54;99162.78;;;0.85;59.67
5062;BME280;2351;50.812;12.872;2023-02-28T11:01:35;99171.72;;;1.08;56.87
5062;BME280;2351;50.812;12.872;2023-02-28T11:04:31;99172.41;;;0.49;58.86
5062;BME280;2351;50.812;12.872;2023-02-28T11:07:05;99174.31;;;-0.32;59.33
5062;BME280;2351;50.812;12.872;2023-02-28T11:09:39;99168.22;;;-0.33;62.71
5062;BME280;2351;50.812;12.872;2023-02-28T11:12:20;99164.75;;;0.06;62.33
5062;BME280;2351;50.812;12.872;2023-02-28T11:14:55;99162.56;;;0.25;61.15
5062;BME280;2351;50.812;12.872;2023-02-28T11:17:29;99157.44;;;0.22;61.60
5062;BME280;2351;50.812;12.872;2023-02-28T11:20:05;99157.63;;;-0.23;61.52
5062;BME280;2351;50.812;12.872;2023-02-28T11:22:43;99148.25;;;-0.31;62.85
5062;BME280;2351;50.812;12.872;2023-02-28T11:25:21;99137.72;;;0.12;63.36
5062;BME280;2351;50.812;12.872;2023-02-28T11:27:55;99138.19;;;0.28;61.44
5062;BME280;2351;50.812;12.872;2023-02-28T11:30:31;99140.88;;;0.59;62.42
5062;BME280;2351;50.812;12.872;2023-02-28T11:33:22;99140.50;;;0.73;62.16
5062;BME280;2351;50.812;12.872;2023-02-28T11:35:59;99137.06;;;0.73;60.92
5062;BME280;2351;50.812;12.872;2023-02-28T11:38:34;99138.69;;;0.77;60.34
5062;BME280;2351;50.812;12.872;2023-02-28T11:41:18;99135.63;;;0.61;60.96
5062;BME280;2351;50.812;12.872;2023-02-28T11:44:02;99135.06;;;0.83;61.80
5062;BME280;2351;50.812;12.872;2023-02-28T11:46:41;99124.72;;;1.11;60.71
5062;BME280;2351;50.812;12.872;2023-02-28T11:49:29;99130.03;;;1.38;61.33
5062;BME280;2351;50.812;12.872;2023-02-28T11:52:10;99132.44;;;1.44;58.85
5062;BME280;2351;50.812;12.872;2023-02-28T11:54:59;99124.84;;;1.37;60.42
5062;BME280;2351;50.812;12.872;2023-02-28T11:57:44;99130.31;;;1.57;58.85
5062;BME280;2351;50.812;12.872;2023-02-28T12:00:37;99130.38;;;0.96;58.13
5062;BME280;2351;50.812;12.872;2023-02-28T12:03:17;99135.69;;;0.91;59.80
5062;BME280;2351;50.812;12.872;2023-02-28T12:06:00;99131.34;;;1.22;60.34
5062;BME280;2351;50.812;12.872;2023-02-28T12:08:47;99130.97;;;1.04;60.40
5062;BME280;2351;50.812;12.872;2023-02-28T12:11:31;99122.28;;;1.35;59.38
5062;BME280;2351;50.812;12.872;2023-02-28T12:14:21;99132.28;;;1.20;58.66
5062;BME280;2351;50.812;12.872;2023-02-28T12:17:03;99131.97;;;1.00;60.45
5062;BME280;2351;50.812;12.872;2023-02-28T12:19:43;99123.69;;;1.45;62.22
5062;BME280;2351;50.812;12.872;2023-02-28T12:22:30;99123.09;;;1.37;59.67
5062;BME280;2351;50.812;12.872;2023-02-28T12:25:40;99121.31;;;1.38;60.08
5062;BME280;2351;50.812;12.872;2023-02-28T12:28:20;99114.31;;;1.68;59.67
5062;BME280;2351;50.812;12.872;2023-02-28T12:30:56;99122.63;;;1.53;59.02
5062;BME280;2351;50.812;12.872;2023-02-28T12:33:33;99126.84;;;0.97;57.43
5062;BME280;2351;50.812;12.872;2023-02-28T12:36:09;99111.72;;;1.10;59.20
5062;BME280;2351;50.812;12.872;2023-02-28T12:38:44;99103.38;;;1.27;59.39
5062;BME280;2351;50.812;12.872;2023-02-28T12:41:24;99098.97;;;1.59;59.56
5062;BME280;2351;50.812;12.872;2023-02-28T12:44:02;99110.41;;;1.25;58.47
5062;BME280;2351;50.812;12.872;2023-02-28T12:46:38;99100.44;;;1.39;58.18
5062;BME280;2351;50.812;12.872;2023-02-28T12:49:15;99101.94;;;1.46;58.14
5062;BME280;2351;50.812;12.872;2023-02-28T12:51:47;99094.41;;;1.65;58.36
5062;BME280;2351;50.812;12.872;2023-02-28T12:54:24;99103.91;;;1.95;58.79
5062;BME280;2351;50.812;12.872;2023-02-28T12:57:05;99103.66;;;2.03;58.34
5062;BME280;2351;50.812;12.872;2023-02-28T12:59:40;99093.47;;;1.95;56.82
5062;BME280;2351;50.812;12.872;2023-02-28T13:06:05;99099.91;;;1.85;56.59
5062;BME280;2351;50.812;12.872;2023-02-28T13:09:04;99097.69;;;1.99;58.20
5062;BME280;2351;50.812;12.872;2023-02-28T13:11:42;99096.38;;;1.57;55.89
5062;BME280;2351;50.812;12.872;2023-02-28T13:14:26;99097.00;;;0.77;57.38
5062;BME280;2351;50.812;12.872;2023-02-28T13:17:09;99098.72;;;1.08;58.32
5062;BME280;2351;50.812;12.872;2023-02-28T13:19:43;99095.22;;;1.39;59.88
5062;BME280;2351;50.812;12.872;2023-02-28T13:22:20;99091.13;;;1.59;59.21
5062;BME280;2351;50.812;12.872;2023-02-28T13:38:16;99097.91;;;1.06;58.42
5062;BME280;2351;50.812;12.872;2023-02-28T13:40:48;99113.00;;;1.25;58.19
5062;BME280;2351;50.812;12.872;2023-02-28T13:43:20;99103.25;;;0.70;59.42
5062;BME280;2351;50.812;12.872;2023-02-28T13:46:12;99091.84;;;0.74;60.12
5062;BME280;2351;50.812;12.872;2023-02-28T13:48:44;99083.22;;;1.02;59.90
5062;BME280;2351;50.812;12.872;2023-02-28T13:51:40;99088.44;;;1.02;59.43
5062;BME280;2351;50.812;12.872;2023-02-28T13:54:28;99083.78;;;1.43;59.96
5062;BME280;2351;50.812;12.872;2023-02-28T13:57:19;99083.31;;;1.30;59.37
5062;BME280;2351;50.812;12.872;2023-02-28T14:00:05;99077.34;;;1.82;60.11
5062;BME280;2351;50.812;12.872;2023-02-28T14:03:04;99078.59;;;1.97;58.84
5062;BME280;2351;50.812;12.872;2023-02-28T14:05:39;99078.59;;;1.97;58.42
5062;BME280;2351;50.812;12.872;2023-02-28T14:08:16;99078.22;;;1.54;58.00
5062;BME280;2351;50.812;12.872;2023-02-28T14:11:03;99079.78;;;2.14;59.34
5062;BME280;2351;50.812;12.872;2023-02-28T14:13:41;99079.66;;;2.44;58.96
5062;BME280;2351;50.812;12.872;2023-02-28T14:16:17;99075.34;;;2.17;56.50
5062;BME280;2351;50.812;12.872;2023-02-28T14:18:56;99075.53;;;2.11;57.97
5062;BME280;2351;50.812;12.872;2023-02-28T14:21:31;99079.59;;;2.20;58.63